sensor_id;sensor_type;location;lat;lon;timestamp;pressure;altitude;pressure_sealevel;temperature;humidity
78835;BME280;68187;42.682;23.352;2023-03-12T00:00:32;94272.19;;;3.31;58.00
78835;BME280;68187;42.682;23.352;2023-03-12T00:02:59;94277.78;;;3.23;57.23
78835;BME280;68187;42.682;23.352;2023-03-12T00:05:26;94246.75;;;3.05;57.83
78835;BME280;68187;42.682;23.352;2023-03-12T00:07:54;94283.50;;;3.20;57.57
78835;BME280;68187;42.682;23.352;2023-03-12T00:10:24;94275.59;;;3.15;56.83
78835;BME280;68187;42.682;23.352;2023-03-12T00:12:50;94278.50;;;3.02;57.24
78835;BME280;68187;42.682;23.352;2023-03-12T00:15:17;94294.25;;;3.07;57.99
78835;BME280;68187;42.682;23.352;2023-03-12T00:17:44;94302.78;;;3.03;58.20
78835;BME280;68187;42.682;23.352;2023-03-12T00:20:11;94297.91;;;3.06;57.61
78835;BME280;68187;42.682;23.352;2023-03-12T00:22:39;94311.50;;;3.08;57.38
78835;BME280;68187;42.682;23.352;2023-03-12T00:25:11;94307.22;;;3.02;57.36
78835;BME280;68187;42.682;23.352;2023-03-12T00:27:37;94320.31;;;3.07;57.11
78835;BME280;68187;42.682;23.352;2023-03-12T00:30:05;94319.22;;;3.03;57.09
78835;BME280;68187;42.682;23.352;2023-03-12T00:32:32;94322.84;;;3.02;57.04
78835;BME280;68187;42.682;23.352;2023-03-12T00:34:59;94324.53;;;2.92;57.16
78835;BME280;68187;42.682;23.352;2023-03-12T00:37:26;94307.44;;;2.84;57.28
78835;BME280;68187;42.682;23.352;2023-03-12T00:39:53;94308.72;;;2.81;57.58
78835;BME280;68187;42.682;23.352;2023-03-12T00:42:22;94316.78;;;2.80;57.37
78835;BME280;68187;42.682;23.352;2023-03-12T00:44:55;94327.28;;;2.85;56.22
78835;BME280;68187;42.682;23.352;2023-03-12T00:47:22;94322.88;;;2.85;56.93
78835;BME280;68187;42.682;23.352;2023-03-12T00:49:48;94321.59;;;2.88;56.72
78835;BME280;68187;42.682;23.352;2023-03-12T00:52:15;94322.63;;;2.87;57.62
78835;BME280;68187;42.682;23.352;2023-03-12T00:54:42;94316.63;;;2.86;57.42
78835;BME280;68187;42.682;23.352;2023-03-12T00:57:09;94309.44;;;2.77;58.32
78835;BME280;68187;42.682;23.352;2023-03-12T00:59:37;94322.88;;;2.85;57.83
78835;BME280;68187;42.682;23.352;2023-03-12T01:02:05;94319.88;;;2.77;58.20
78835;BME280;68187;42.682;23.352;2023-03-12T01:04:31;94328.53;;;2.82;58.85
78835;BME280;68187;42.682;23.352;2023-03-12T01:06:58;94334.00;;;2.81;58.75
78835;BME280;68187;42.682;23.352;2023-03-12T01:09:25;94336.38;;;2.82;58.84
78835;BME280;68187;42.682;23.352;2023-03-12T01:11:51;94331.94;;;2.83;58.52
78835;BME280;68187;42.682;23.352;2023-03-12T01:14:18;94346.00;;;2.82;59.32
78835;BME280;68187;42.682;23.352;2023-03-12T01:16:46;94351.22;;;2.82;58.24
78835;BME280;68187;42.682;23.352;2023-03-12T01:19:13;94321.91;;;2.58;57.83
78835;BME280;68187;42.682;23.352;2023-03-12T01:21:40;94339.59;;;2.73;57.98
78835;BME280;68187;42.682;23.352;2023-03-12T01:24:07;94352.41;;;2.74;59.14
78835;BME280;68187;42.682;23.352;2023-03-12T01:26:33;94347.00;;;2.64;58.65
78835;BME280;68187;42.682;23.352;2023-03-12T01:29:00;94344.94;;;2.50;59.52
78835;BME280;68187;42.682;23.352;2023-03-12T01:31:27;94358.03;;;2.55;58.92
78835;BME280;68187;42.682;23.352;2023-03-12T01:33:55;94346.06;;;2.54;59.22
78835;BME280;68187;42.682;23.352;2023-03-12T01:36:22;94359.28;;;2.52;58.96
78835;BME280;68187;42.682;23.352;2023-03-12T01:38:50;94339.72;;;2.50;59.20
78835;BME280;68187;42.682;23.352;2023-03-12T01:41:17;94335.13;;;2.57;58.22
78835;BME280;68187;42.682;23.352;2023-03-12T01:43:44;94356.00;;;2.57;58.91
78835;BME280;68187;42.682;23.352;2023-03-12T01:46:21;94351.16;;;2.49;58.84
78835;BME280;68187;42.682;23.352;2023-03-12T01:48:53;94349.34;;;2.49;58.97
78835;BME280;68187;42.682;23.352;2023-03-12T01:51:24;94349.13;;;2.51;59.02
78835;BME280;68187;42.682;23.352;2023-03-12T01:53:55;94341.59;;;2.38;59.51
78835;BME280;68187;42.682;23.352;2023-03-12T01:56:26;94347.34;;;2.40;58.86
78835;BME280;68187;42.682;23.352;2023-03-12T01:58:55;94331.06;;;2.33;59.13
78835;BME280;68187;42.682;23.352;2023-03-12T02:01:24;94354.78;;;2.48;59.46
78835;BME280;68187;42.682;23.352;2023-03-12T02:03:52;94358.97;;;2.49;59.90
78835;BME280;68187;42.682;23.352;2023-03-12T02:06:24;94346.97;;;2.48;59.39
78835;BME280;68187;42.682;23.352;2023-03-12T02:08:53;94349.34;;;2.49;59.52
78835;BME280;68187;42.682;23.352;2023-03-12T02:11:20;94367.91;;;2.53;59.25
78835;BME280;68187;42.682;23.352;2023-03-12T02:13:46;94368.47;;;2.55;59.70
78835;BME280;68187;42.682;23.352;2023-03-12T02:16:14;94356.38;;;2.49;59.48
78835;BME280;68187;42.682;23.352;2023-03-12T02:18:40;94365.34;;;2.41;59.37
78835;BME280;68187;42.682;23.352;2023-03-12T02:21:14;94361.50;;;2.44;59.63
78835;BME280;68187;42.682;23.352;2023-03-12T02:23:51;94349.97;;;2.40;58.47
78835;BME280;68187;42.682;23.352;2023-03-12T02:26:22;94370.34;;;2.43;57.95
78835;BME280;68187;42.682;23.352;2023-03-12T02:28:50;94329.41;;;2.27;58.50
78835;BME280;68187;42.682;23.352;2023-03-12T02:31:19;94372.56;;;2.51;58.78
78835;BME280;68187;42.682;23.352;2023-03-12T02:33:48;94364.34;;;2.42;58.72
78835;BME280;68187;42.682;23.352;2023-03-12T02:36:14;94367.25;;;2.46;58.60
78835;BME280;68187;42.682;23.352;2023-03-12T02:38:43;94367.22;;;2.57;59.39
78835;BME280;68187;42.682;23.352;2023-03-12T02:41:13;94369.97;;;2.51;59.31
78835;BME280;68187;42.682;23.352;2023-03-12T02:43:44;94367.81;;;2.48;58.92
78835;BME280;68187;42.682;23.352;2023-03-12T02:46:11;94367.50;;;2.44;58.97
78835;BME280;68187;42.682;23.352;2023-03-12T02:48:39;94363.09;;;2.45;59.84
78835;BME280;68187;42.682;23.352;2023-03-12T02:51:06;94366.84;;;2.37;59.16
78835;BME280;68187;42.682;23.352;2023-03-12T02:53:33;94355.44;;;2.27;59.88
78835;BME280;68187;42.682;23.352;2023-03-12T02:56:00;94318.28;;;1.91;59.78
78835;BME280;68187;42.682;23.352;2023-03-12T02:58:27;94354.13;;;2.12;59.77
78835;BME280;68187;42.682;23.352;2023-03-12T03:00:55;94357.97;;;2.22;59.84
78835;BME280;68187;42.682;23.352;2023-03-12T03:03:22;94342.56;;;2.20;59.53
78835;BME280;68187;42.682;23.352;2023-03-12T03:05:49;94345.88;;;2.15;60.57
78835;BME280;68187;42.682;23.352;2023-03-12T03:08:16;94346.88;;;2.14;60.32
78835;BME280;68187;42.682;23.352;2023-03-12T03:10:43;94346.06;;;2.14;61.21
78835;BME280;68187;42.682;23.352;2023-03-12T03:13:09;94350.53;;;2.13;60.94
78835;BME280;68187;42.682;23.352;2023-03-12T03:15:36;94329.38;;;1.98;61.10
78835;BME280;68187;42.682;23.352;2023-03-12T03:18:05;94347.50;;;1.93;61.98
78835;BME280;68187;42.682;23.352;2023-03-12T03:20:32;94357.22;;;1.98;63.34
78835;BME280;68187;42.682;23.352;2023-03-12T03:22:59;94377.47;;;2.07;61.82
78835;BME280;68187;42.682;23.352;2023-03-12T03:25:26;94365.94;;;2.03;62.57
78835;BME280;68187;42.682;23.352;2023-03-12T03:27:52;94363.66;;;1.95;62.35
78835;BME280;68187;42.682;23.352;2023-03-12T03:30:20;94379.19;;;2.02;61.52
78835;BME280;68187;42.682;23.352;2023-03-12T03:32:47;94378.03;;;2.09;61.26
78835;BME280;68187;42.682;23.352;2023-03-12T03:35:16;94375.78;;;2.13;62.79
78835;BME280;68187;42.682;23.352;2023-03-12T03:37:43;94368.09;;;2.06;60.99
78835;BME280;68187;42.682;23.352;2023-03-12T03:40:10;94378.59;;;2.11;61.37
78835;BME280;68187;42.682;23.352;2023-03-12T03:42:38;94367.31;;;1.94;60.78
78835;BME280;68187;42.682;23.352;2023-03-12T03:45:07;94395.13;;;2.05;61.19
78835;BME280;68187;42.682;23.352;2023-03-12T03:47:34;94389.47;;;2.08;60.65
78835;BME280;68187;42.682;23.352;2023-03-12T03:50:02;94376.63;;;1.90;60.56
78835;BME280;68187;42.682;23.352;2023-03-12T03:52:30;94387.09;;;1.95;60.25
78835;BME280;68187;42.682;23.352;2023-03-12T03:54:57;94378.28;;;1.96;60.19
78835;BME280;68187;42.682;23.352;2023-03-12T03:57:24;94393.78;;;2.03;59.53
78835;BME280;68187;42.682;23.352;2023-03-12T03:59:51;94371.41;;;1.90;59.50
78835;BME280;68187;42.682;23.352;2023-03-12T04:02:18;94403.22;;;1.92;60.21
78835;BME280;68187;42.682;23.352;2023-03-12T04:04:44;94386.69;;;1.87;60.12
78835;BME280;68187;42.682;23.352;2023-03-12T04:07:11;94403.09;;;1.87;60.00
78835;BME280;68187;42.682;23.352;2023-03-12T04:09:39;94397.66;;;1.77;60.00
78835;BME280;68187;42.682;23.352;2023-03-12T04:12:06;94426.41;;;1.82;60.92
78835;BME280;68187;42.682;23.352;2023-03-12T04:14:33;94427.53;;;1.86;59.92
78835;BME280;68187;42.682;23.352;2023-03-12T04:17:00;94434.91;;;1.78;58.75
78835;BME280;68187;42.682;23.352;2023-03-12T04:19:26;94429.56;;;1.73;58.59
78835;BME280;68187;42.682;23.352;2023-03-12T04:21:53;94443.38;;;1.73;59.60
78835;BME280;68187;42.682;23.352;2023-03-12T04:24:20;94454.84;;;1.72;57.42
78835;BME280;68187;42.682;23.352;2023-03-12T04:26:48;94452.13;;;1.79;57.06
78835;BME280;68187;42.682;23.352;2023-03-12T04:29:16;94453.00;;;1.73;56.35
78835;BME280;68187;42.682;23.352;2023-03-12T04:31:43;94444.19;;;1.62;56.47
78835;BME280;68187;42.682;23.352;2023-03-12T04:34:10;94466.81;;;1.62;56.42
78835;BME280;68187;42.682;23.352;2023-03-12T04:36:37;94468.16;;;1.53;56.07
78835;BME280;68187;42.682;23.352;2023-03-12T04:39:03;94468.94;;;1.53;56.42
78835;BME280;68187;42.682;23.352;2023-03-12T04:41:32;94468.94;;;1.53;56.24
78835;BME280;68187;42.682;23.352;2023-03-12T04:44:01;94472.34;;;1.54;55.63
78835;BME280;68187;42.682;23.352;2023-03-12T04:46:28;94477.66;;;1.47;56.18
78835;BME280;68187;42.682;23.352;2023-03-12T04:48:54;94470.97;;;1.39;55.22
78835;BME280;68187;42.682;23.352;2023-03-12T04:51:22;94477.28;;;1.32;56.59
78835;BME280;68187;42.682;23.352;2023-03-12T04:53:49;94495.72;;;1.30;56.99
78835;BME280;68187;42.682;23.352;2023-03-12T04:56:16;94487.81;;;1.37;56.92
78835;BME280;68187;42.682;23.352;2023-03-12T04:58:42;94488.72;;;1.31;56.46
78835;BME280;68187;42.682;23.352;2023-03-12T05:01:20;94501.72;;;1.31;56.28
78835;BME280;68187;42.682;23.352;2023-03-12T05:03:48;94506.81;;;1.37;56.33
78835;BME280;68187;42.682;23.352;2023-03-12T05:06:15;94495.38;;;1.27;56.60
78835;BME280;68187;42.682;23.352;2023-03-12T05:08:41;94518.16;;;1.43;56.78
78835;BME280;68187;42.682;23.352;2023-03-12T05:11:08;94521.53;;;1.43;56.24
78835;BME280;68187;42.682;23.352;2023-03-12T05:13:35;94514.31;;;1.34;57.25
78835;BME280;68187;42.682;23.352;2023-03-12T05:16:02;94529.00;;;1.40;57.71
78835;BME280;68187;42.682;23.352;2023-03-12T05:18:30;94526.41;;;1.40;57.83
78835;BME280;68187;42.682;23.352;2023-03-12T05:20:58;94520.06;;;1.36;57.48
78835;BME280;68187;42.682;23.352;2023-03-12T05:23:25;94527.19;;;1.40;56.75
78835;BME280;68187;42.682;23.352;2023-03-12T05:25:51;94515.88;;;1.35;57.67
78835;BME280;68187;42.682;23.352;2023-03-12T05:28:18;94541.25;;;1.51;57.35
78835;BME280;68187;42.682;23.352;2023-03-12T05:30:46;94520.75;;;1.43;57.58
78835;BME280;68187;42.682;23.352;2023-03-12T05:33:12;94540.25;;;1.64;57.21
78835;BME280;68187;42.682;23.352;2023-03-12T05:35:40;94534.38;;;1.57;58.02
78835;BME280;68187;42.682;23.352;2023-03-12T05:38:07;94552.78;;;1.55;57.69
78835;BME280;68187;42.682;23.352;2023-03-12T05:40:34;94551.56;;;1.58;56.62
78835;BME280;68187;42.682;23.352;2023-03-12T05:43:00;94521.91;;;1.47;56.38
78835;BME280;68187;42.682;23.352;2023-03-12T05:45:29;94555.31;;;1.73;54.94
78835;BME280;68187;42.682;23.352;2023-03-12T05:47:57;94569.38;;;1.84;54.94
78835;BME280;68187;42.682;23.352;2023-03-12T05:50:25;94567.81;;;1.94;53.03
78835;BME280;68187;42.682;23.352;2023-03-12T05:52:53;94562.25;;;2.02;53.82
78835;BME280;68187;42.682;23.352;2023-03-12T05:55:20;94560.22;;;2.04;53.67
78835;BME280;68187;42.682;23.352;2023-03-12T05:57:46;94577.00;;;2.20;54.45
78835;BME280;68187;42.682;23.352;2023-03-12T06:00:14;94567.03;;;2.29;53.45
78835;BME280;68187;42.682;23.352;2023-03-12T06:02:41;94593.66;;;2.42;53.46
78835;BME280;68187;42.682;23.352;2023-03-12T06:05:08;94585.84;;;2.42;53.14
78835;BME280;68187;42.682;23.352;2023-03-12T06:07:35;94600.34;;;2.50;51.96
78835;BME280;68187;42.682;23.352;2023-03-12T06:10:04;94592.28;;;2.51;51.64
78835;BME280;68187;42.682;23.352;2023-03-12T06:12:31;94581.97;;;2.45;51.90
78835;BME280;68187;42.682;23.352;2023-03-12T06:14:58;94593.22;;;2.45;49.97
78835;BME280;68187;42.682;23.352;2023-03-12T06:17:27;94596.59;;;2.46;51.54
78835;BME280;68187;42.682;23.352;2023-03-12T06:19:54;94588.00;;;2.34;50.57
78835;BME280;68187;42.682;23.352;2023-03-12T06:22:21;94596.03;;;2.44;51.17
78835;BME280;68187;42.682;23.352;2023-03-12T06:24:48;94582.66;;;2.40;50.24
78835;BME280;68187;42.682;23.352;2023-03-12T06:27:16;94617.56;;;2.51;51.42
78835;BME280;68187;42.682;23.352;2023-03-12T06:29:43;94614.25;;;2.55;50.98
78835;BME280;68187;42.682;23.352;2023-03-12T06:32:11;94623.22;;;2.59;50.47
78835;BME280;68187;42.682;23.352;2023-03-12T06:34:38;94619.47;;;2.67;50.69
78835;BME280;68187;42.682;23.352;2023-03-12T06:37:05;94623.88;;;2.66;51.44
78835;BME280;68187;42.682;23.352;2023-03-12T06:39:31;94619.59;;;2.72;50.38
78835;BME280;68187;42.682;23.352;2023-03-12T06:41:59;94631.81;;;2.83;51.72
78835;BME280;68187;42.682;23.352;2023-03-12T06:44:27;94634.53;;;2.88;50.43
78835;BME280;68187;42.682;23.352;2023-03-12T06:46:53;94640.31;;;3.02;52.01
78835;BME280;68187;42.682;23.352;2023-03-12T06:49:20;94643.22;;;3.05;49.71
78835;BME280;68187;42.682;23.352;2023-03-12T06:51:47;94654.81;;;2.98;49.83
78835;BME280;68187;42.682;23.352;2023-03-12T06:54:14;94638.94;;;2.99;51.37
78835;BME280;68187;42.682;23.352;2023-03-12T06:56:41;94634.97;;;3.08;49.04
78835;BME280;68187;42.682;23.352;2023-03-12T06:59:08;94662.47;;;3.27;49.19
78835;BME280;68187;42.682;23.352;2023-03-12T07:01:37;94652.03;;;3.27;47.76
78835;BME280;68187;42.682;23.352;2023-03-12T07:04:04;94661.81;;;3.20;46.88
78835;BME280;68187;42.682;23.352;2023-03-12T07:06:30;94639.06;;;3.04;48.43
78835;BME280;68187;42.682;23.352;2023-03-12T07:08:57;94670.34;;;3.16;47.67
78835;BME280;68187;42.682;23.352;2023-03-12T07:11:24;94662.03;;;3.19;47.81
78835;BME280;68187;42.682;23.352;2023-03-12T07:13:50;94674.28;;;3.18;46.44
78835;BME280;68187;42.682;23.352;2023-03-12T07:16:17;94686.06;;;3.32;46.77
78835;BME280;68187;42.682;23.352;2023-03-12T07:18:45;94675.56;;;3.55;49.36
78835;BME280;68187;42.682;23.352;2023-03-12T07:21:12;94644.53;;;3.31;46.92
78835;BME280;68187;42.682;23.352;2023-03-12T07:23:40;94681.25;;;3.52;45.97
78835;BME280;68187;42.682;23.352;2023-03-12T07:26:07;94686.56;;;3.57;45.90
78835;BME280;68187;42.682;23.352;2023-03-12T07:28:34;94680.41;;;3.63;47.67
78835;BME280;68187;42.682;23.352;2023-03-12T07:31:01;94684.06;;;3.63;45.93
78835;BME280;68187;42.682;23.352;2023-03-12T07:33:28;94673.09;;;3.49;45.39
78835;BME280;68187;42.682;23.352;2023-03-12T07:35:56;94687.13;;;3.59;46.31
78835;BME280;68187;42.682;23.352;2023-03-12T07:38:23;94685.41;;;3.65;46.60
78835;BME280;68187;42.682;23.352;2023-03-12T07:40:50;94695.63;;;3.67;47.01
78835;BME280;68187;42.682;23.352;2023-03-12T07:43:17;94703.41;;;3.78;45.29
78835;BME280;68187;42.682;23.352;2023-03-12T07:45:44;94576.97;;;3.18;44.71
78835;BME280;68187;42.682;23.352;2023-03-12T07:48:11;94699.78;;;3.79;45.32
78835;BME280;68187;42.682;23.352;2023-03-12T07:50:38;94710.75;;;3.93;46.90
78835;BME280;68187;42.682;23.352;2023-03-12T07:53:06;94709.94;;;3.92;44.39
78835;BME280;68187;42.682;23.352;2023-03-12T07:55:33;94723.63;;;4.11;45.17
78835;BME280;68187;42.682;23.352;2023-03-12T07:58:00;94729.97;;;4.15;43.86
78835;BME280;68187;42.682;23.352;2023-03-12T08:00:28;94705.28;;;4.22;45.48
78835;BME280;68187;42.682;23.352;2023-03-12T08:02:55;94710.41;;;4.34;44.86
78835;BME280;68187;42.682;23.352;2023-03-12T08:05:22;94715.72;;;4.22;43.23
78835;BME280;68187;42.682;23.352;2023-03-12T08:07:49;94715.84;;;4.16;43.24
78835;BME280;68187;42.682;23.352;2023-03-12T08:10:18;94706.91;;;4.12;43.94
78835;BME280;68187;42.682;23.352;2023-03-12T08:12:45;94714.38;;;4.20;43.60
78835;BME280;68187;42.682;23.352;2023-03-12T08:15:12;94722.94;;;4.32;44.77
78835;BME280;68187;42.682;23.352;2023-03-12T08:17:39;94742.72;;;4.56;42.76
78835;BME280;68187;42.682;23.352;2023-03-12T08:20:07;94751.09;;;4.75;42.55
78835;BME280;68187;42.682;23.352;2023-03-12T08:22:35;94754.03;;;4.45;41.69
78835;BME280;68187;42.682;23.352;2023-03-12T08:25:02;94740.47;;;4.31;42.96
78835;BME280;68187;42.682;23.352;2023-03-12T08:27:30;94764.72;;;4.44;43.10
78835;BME280;68187;42.682;23.352;2023-03-12T08:29:58;94753.88;;;4.68;43.10
78835;BME280;68187;42.682;23.352;2023-03-12T08:32:25;94756.72;;;5.00;43.47
78835;BME280;68187;42.682;23.352;2023-03-12T08:34:52;94754.78;;;4.90;42.32
78835;BME280;68187;42.682;23.352;2023-03-12T08:37:19;94765.63;;;5.16;41.68
78835;BME280;68187;42.682;23.352;2023-03-12T08:39:46;94753.72;;;5.25;41.38
78835;BME280;68187;42.682;23.352;2023-03-12T08:42:13;94769.81;;;5.33;40.64
78835;BME280;68187;42.682;23.352;2023-03-12T08:44:41;94763.16;;;5.26;40.25
78835;BME280;68187;42.682;23.352;2023-03-12T08:47:07;94766.66;;;5.53;41.10
78835;BME280;68187;42.682;23.352;2023-03-12T08:49:34;94757.84;;;5.59;40.67
78835;BME280;68187;42.682;23.352;2023-03-12T08:52:01;94761.69;;;5.51;39.31
78835;BME280;68187;42.682;23.352;2023-03-12T08:54:27;94760.28;;;5.27;40.00
78835;BME280;68187;42.682;23.352;2023-03-12T08:56:54;94772.03;;;5.25;40.46
78835;BME280;68187;42.682;23.352;2023-03-12T08:59:21;94766.31;;;5.28;40.13
78835;BME280;68187;42.682;23.352;2023-03-12T09:01:49;94768.19;;;5.49;40.56
78835;BME280;68187;42.682;23.352;2023-03-12T09:04:16;94774.06;;;5.39;39.72
78835;BME280;68187;42.682;23.352;2023-03-12T09:06:43;94784.19;;;5.52;40.99
78835;BME280;68187;42.682;23.352;2023-03-12T09:09:09;94774.78;;;5.73;40.69
78835;BME280;68187;42.682;23.352;2023-03-12T09:11:37;94768.31;;;5.97;39.64
78835;BME280;68187;42.682;23.352;2023-03-12T09:14:05;94776.03;;;6.30;42.03
78835;BME280;68187;42.682;23.352;2023-03-12T09:16:33;94773.94;;;6.32;40.38
78835;BME280;68187;42.682;23.352;2023-03-12T09:19:01;94756.63;;;6.31;40.06
78835;BME280;68187;42.682;23.352;2023-03-12T09:21:28;94771.56;;;6.58;41.09
78835;BME280;68187;42.682;23.352;2023-03-12T09:23:58;94762.09;;;6.83;38.66
78835;BME280;68187;42.682;23.352;2023-03-12T09:26:25;94767.78;;;6.75;37.85
78835;BME280;68187;42.682;23.352;2023-03-12T09:28:51;94763.44;;;6.86;39.12
78835;BME280;68187;42.682;23.352;2023-03-12T09:31:18;94764.31;;;6.96;36.66
78835;BME280;68187;42.682;23.352;2023-03-12T09:33:45;94774.84;;;7.01;38.54
78835;BME280;68187;42.682;23.352;2023-03-12T09:36:13;94772.81;;;7.08;37.38
78835;BME280;68187;42.682;23.352;2023-03-12T09:38:40;94760.31;;;6.89;38.03
78835;BME280;68187;42.682;23.352;2023-03-12T09:41:16;94768.16;;;7.20;39.01
78835;BME280;68187;42.682;23.352;2023-03-12T09:43:48;94768.69;;;7.22;37.11
78835;BME280;68187;42.682;23.352;2023-03-12T09:46:23;94770.19;;;7.50;38.06
78835;BME280;68187;42.682;23.352;2023-03-12T09:48:52;94765.66;;;7.82;37.45
78835;BME280;68187;42.682;23.352;2023-03-12T09:51:27;94777.09;;;8.18;36.72
78835;BME280;68187;42.682;23.352;2023-03-12T09:53:58;94763.22;;;8.28;34.73
78835;BME280;68187;42.682;23.352;2023-03-12T09:56:26;94758.94;;;8.17;35.36
78835;BME280;68187;42.682;23.352;2023-03-12T09:58:53;94766.44;;;8.50;37.39
78835;BME280;68187;42.682;23.352;2023-03-12T10:01:29;94760.44;;;8.70;34.23
78835;BME280;68187;42.682;23.352;2023-03-12T10:04:29;94759.13;;;8.82;34.50
78835;BME280;68187;42.682;23.352;2023-03-12T10:07:03;94767.78;;;8.57;34.14
78835;BME280;68187;42.682;23.352;2023-03-12T10:09:59;94757.47;;;8.41;34.34
78835;BME280;68187;42.682;23.352;2023-03-12T10:12:35;94759.03;;;8.32;34.56
78835;BME280;68187;42.682;23.352;2023-03-12T10:15:28;94752.47;;;7.77;34.76
78835;BME280;68187;42.682;23.352;2023-03-12T10:18:07;94762.22;;;7.82;34.90
78835;BME280;68187;42.682;23.352;2023-03-12T10:20:52;94757.47;;;8.36;35.85
78835;BME280;68187;42.682;23.352;2023-03-12T10:23:33;94749.59;;;8.61;33.52
78835;BME280;68187;42.682;23.352;2023-03-12T10:26:04;94748.56;;;8.77;33.33
78835;BME280;68187;42.682;23.352;2023-03-12T10:28:35;94754.38;;;9.09;33.00
78835;BME280;68187;42.682;23.352;2023-03-12T10:31:05;94757.00;;;9.40;32.85
78835;BME280;68187;42.682;23.352;2023-03-12T10:33:42;94744.59;;;9.45;31.43
78835;BME280;68187;42.682;23.352;2023-03-12T10:36:15;94755.88;;;9.66;30.94
78835;BME280;68187;42.682;23.352;2023-03-12T10:38:44;94756.44;;;9.53;31.18
78835;BME280;68187;42.682;23.352;2023-03-12T10:41:15;94747.78;;;9.32;32.95
78835;BME280;68187;42.682;23.352;2023-03-12T10:43:42;94753.06;;;9.07;31.10
78835;BME280;68187;42.682;23.352;2023-03-12T10:46:29;94770.97;;;9.00;31.81
78835;BME280;68187;42.682;23.352;2023-03-12T10:49:25;94772.03;;;9.19;33.36
78835;BME280;68187;42.682;23.352;2023-03-12T10:51:54;94771.25;;;9.13;32.55
78835;BME280;68187;42.682;23.352;2023-03-12T10:54:27;94750.16;;;8.93;31.75
78835;BME280;68187;42.682;23.352;2023-03-12T10:56:54;94728.59;;;8.76;31.96
78835;BME280;68187;42.682;23.352;2023-03-12T10:59:26;94754.94;;;9.01;32.92
78835;BME280;68187;42.682;23.352;2023-03-12T11:01:53;94737.50;;;9.25;31.90
78835;BME280;68187;42.682;23.352;2023-03-12T11:04:23;94724.00;;;9.67;34.75
78835;BME280;68187;42.682;23.352;2023-03-12T11:07:06;94734.03;;;10.78;34.63
78835;BME280;68187;42.682;23.352;2023-03-12T11:09:41;94738.13;;;10.60;31.79
78835;BME280;68187;42.682;23.352;2023-03-12T11:12:23;94720.16;;;10.57;30.72
78835;BME280;68187;42.682;23.352;2023-03-12T11:14:50;94730.69;;;11.01;31.34
78835;BME280;68187;42.682;23.352;2023-03-12T11:17:22;94748.00;;;11.17;38.13
78835;BME280;68187;42.682;23.352;2023-03-12T11:19:50;94739.31;;;11.40;33.75
78835;BME280;68187;42.682;23.352;2023-03-12T11:22:28;94732.22;;;11.36;27.18
78835;BME280;68187;42.682;23.352;2023-03-12T11:24:58;94726.38;;;11.39;28.44
78835;BME280;68187;42.682;23.352;2023-03-12T11:27:35;94738.41;;;10.93;28.87
78835;BME280;68187;42.682;23.352;2023-03-12T11:30:04;94718.56;;;10.61;27.21
78835;BME280;68187;42.682;23.352;2023-03-12T11:32:34;94720.63;;;10.26;29.75
78835;BME280;68187;42.682;23.352;2023-03-12T11:35:02;94712.59;;;9.77;29.79
78835;BME280;68187;42.682;23.352;2023-03-12T11:37:41;94725.25;;;9.85;29.78
78835;BME280;68187;42.682;23.352;2023-03-12T11:40:17;94706.72;;;9.95;29.61
78835;BME280;68187;42.682;23.352;2023-03-12T11:43:02;94732.63;;;9.88;28.00
78835;BME280;68187;42.682;23.352;2023-03-12T11:45:42;94715.66;;;10.04;30.58
78835;BME280;68187;42.682;23.352;2023-03-12T11:48:18;94709.75;;;10.37;31.11
78835;BME280;68187;42.682;23.352;2023-03-12T11:51:02;94719.72;;;10.45;30.38
78835;BME280;68187;42.682;23.352;2023-03-12T11:56:55;94708.84;;;10.52;28.68
78835;BME280;68187;42.682;23.352;2023-03-12T11:59:42;94720.03;;;10.34;29.11
78835;BME280;68187;42.682;23.352;2023-03-12T12:02:19;94724.16;;;9.91;29.55
78835;BME280;68187;42.682;23.352;2023-03-12T12:05:30;94725.31;;;9.70;29.41
78835;BME280;68187;42.682;23.352;2023-03-12T12:10:52;94704.38;;;9.88;29.31
78835;BME280;68187;42.682;23.352;2023-03-12T12:13:29;94722.09;;;9.88;30.64
78835;BME280;68187;42.682;23.352;2023-03-12T12:16:08;94724.81;;;9.63;31.77
78835;BME280;68187;42.682;23.352;2023-03-12T12:18:49;94726.38;;;9.64;31.44
78835;BME280;68187;42.682;23.352;2023-03-12T12:21:33;94723.25;;;9.47;31.81
78835;BME280;68187;42.682;23.352;2023-03-12T12:24:08;94720.63;;;9.52;31.07
78835;BME280;68187;42.682;23.352;2023-03-12T12:26:43;94734.31;;;9.49;32.24
78835;BME280;68187;42.682;23.352;2023-03-12T12:29:26;94734.84;;;9.46;32.43
78835;BME280;68187;42.682;23.352;2023-03-12T12:31:57;94730.66;;;9.29;31.72
78835;BME280;68187;42.682;23.352;2023-03-12T12:34:49;94731.44;;;9.35;32.67
78835;BME280;68187;42.682;23.352;2023-03-12T12:37:39;94724.84;;;9.43;32.43
78835;BME280;68187;42.682;23.352;2023-03-12T12:40:17;94721.38;;;9.52;31.37
78835;BME280;68187;42.682;23.352;2023-03-12T12:42:51;94718.47;;;9.64;31.97
78835;BME280;68187;42.682;23.352;2023-03-12T12:45:23;94710.50;;;9.79;31.67
78835;BME280;68187;42.682;23.352;2023-03-12T12:47:55;94711.78;;;9.91;31.92
78835;BME280;68187;42.682;23.352;2023-03-12T12:50:26;94717.91;;;9.72;31.00
78835;BME280;68187;42.682;23.352;2023-03-12T12:52:59;94716.25;;;9.91;31.65
78835;BME280;68187;42.682;23.352;2023-03-12T12:55:30;94725.13;;;10.20;31.55
78835;BME280;68187;42.682;23.352;2023-03-12T12:58:03;94718.81;;;10.16;29.38
78835;BME280;68187;42.682;23.352;2023-03-12T13:00:40;94732.41;;;10.43;30.69
78835;BME280;68187;42.682;23.352;2023-03-12T13:03:12;94720.53;;;10.41;30.33
78835;BME280;68187;42.682;23.352;2023-03-12T13:05:47;94730.41;;;10.20;30.57
78835;BME280;68187;42.682;23.352;2023-03-12T13:11:24;94728.53;;;9.47;31.33
78835;BME280;68187;42.682;23.352;2023-03-12T13:14:12;94702.22;;;9.11;33.39
78835;BME280;68187;42.682;23.352;2023-03-12T13:16:41;94744.09;;;8.98;33.04
78835;BME280;68187;42.682;23.352;2023-03-12T13:19:23;94725.44;;;8.94;32.96
78835;BME280;68187;42.682;23.352;2023-03-12T13:21:58;94745.41;;;9.30;33.16